createdAt,value
2019-01-22T00:00:48.782Z,99596.14
2019-01-22T00:03:57.996Z,99596.00
2019-01-22T00:07:00.402Z,99600.30
2019-01-22T00:09:41.462Z,99601.47
2019-01-22T00:12:22.155Z,99589.84
2019-01-22T00:15:03.476Z,99591.34
2019-01-22T00:17:44.862Z,99591.34
2019-01-22T00:20:54.931Z,99589.03
2019-01-22T00:23:46.075Z,99581.45
2019-01-22T00:29:06.252Z,99571.33
2019-01-22T00:31:47.225Z,99570.77
2019-01-22T00:34:28.940Z,99569.34
2019-01-22T00:46:23.968Z,99570.52
2019-01-22T00:49:33.164Z,99572.97
2019-01-22T00:52:22.193Z,99568.77
2019-01-22T00:55:31.824Z,99568.77
2019-01-22T00:58:05.496Z,99572.39
2019-01-22T01:01:14.776Z,99572.39
2019-01-22T01:03:55.246Z,99578.33
2019-01-22T01:09:39.495Z,99567.14
2019-01-22T01:12:20.658Z,99561.09
2019-01-22T01:24:08.436Z,99559.35
2019-01-22T01:32:49.868Z,99549.47
2019-01-22T01:35:59.972Z,99545.61
2019-01-22T01:42:11.427Z,99539.05
2019-01-22T01:47:53.344Z,99538.33
2019-01-22T01:56:33.140Z,99521.86
2019-01-22T01:59:03.988Z,99522.52
2019-01-22T02:04:46.616Z,99508.81
2019-01-22T02:07:27.710Z,99510.56
2019-01-22T02:10:09.400Z,99504.78
2019-01-22T02:12:50.457Z,99494.41
2019-01-22T02:18:19.982Z,99491.39
2019-01-22T02:21:01.647Z,99493.27
2019-01-22T02:23:42.864Z,99487.80
2019-01-22T02:26:24.322Z,99485.45
2019-01-22T02:29:32.114Z,99490.67
2019-01-22T02:32:39.921Z,99483.15
2019-01-22T02:35:20.999Z,99490.35
2019-01-22T02:38:02.953Z,99483.61
2019-01-22T02:40:44.784Z,99482.54
2019-01-22T02:43:26.388Z,99479.16
2019-01-22T02:46:08.054Z,99471.27
2019-01-22T02:48:49.669Z,99463.50
2019-01-22T02:51:57.620Z,99458.70
2019-01-22T02:55:05.378Z,99452.19
2019-01-22T02:57:46.793Z,99472.62
2019-01-22T03:00:27.070Z,99445.33
2019-01-22T03:03:08.287Z,99443.33
2019-01-22T03:05:50.066Z,99438.92
2019-01-22T03:09:16.669Z,99325.50
2019-01-22T03:15:42.817Z,99417.69
2019-01-22T03:22:28.017Z,99411.15
2019-01-22T03:25:37.143Z,99409.76
2019-01-22T03:28:39.651Z,99406.37
2019-01-22T03:31:21.824Z,99402.89
2019-01-22T03:34:03.578Z,99398.56
2019-01-22T03:36:44.540Z,99395.30
2019-01-22T03:39:25.583Z,99383.45
2019-01-22T03:42:07.979Z,99382.77
2019-01-22T03:45:15.790Z,99378.35
2019-01-22T03:48:23.568Z,99373.85
2019-01-22T03:51:33.043Z,99368.29
2019-01-22T03:54:14.329Z,99362.11
2019-01-22T03:57:23.275Z,99362.11
2019-01-22T04:00:06.196Z,99356.18
2019-01-22T04:02:47.899Z,99350.61
2019-01-22T04:05:28.789Z,99338.31
2019-01-22T04:08:11.332Z,99339.59
2019-01-22T04:10:52.767Z,99331.92
2019-01-22T04:13:42.164Z,99334.22
2019-01-22T04:16:23.239Z,99324.34
2019-01-22T04:18:54.138Z,99319.05
2019-01-22T04:24:42.905Z,99205.80
2019-01-22T04:27:24.890Z,99315.30
2019-01-22T04:30:34.268Z,99308.59
2019-01-22T04:33:42.426Z,99304.88
2019-01-22T04:36:24.434Z,99303.92
2019-01-22T04:39:06.349Z,99310.03
2019-01-22T04:41:48.352Z,99298.67
2019-01-22T04:44:56.096Z,99296.22
2019-01-22T04:48:03.715Z,99289.39
2019-01-22T04:54:32.691Z,99280.95
2019-01-22T04:57:40.523Z,99270.86
2019-01-22T05:00:48.301Z,99277.05
2019-01-22T05:03:56.152Z,99270.18
2019-01-22T05:07:04.128Z,99268.91
2019-01-22T05:10:12.677Z,99259.97
2019-01-22T05:13:20.580Z,99154.11
2019-01-22T05:19:34.081Z,99256.61
2019-01-22T05:32:12.585Z,99244.22
2019-01-22T05:38:22.741Z,99246.31
2019-01-22T05:41:30.717Z,99240.50
2019-01-22T05:44:12.331Z,99241.56
2019-01-22T05:50:44.831Z,99238.41
2019-01-22T05:53:52.618Z,99238.19
2019-01-22T05:56:45.180Z,99238.65
2019-01-22T05:59:53.077Z,99223.68
2019-01-22T06:02:34.610Z,99225.06
2019-01-22T06:05:44.154Z,99222.52
2019-01-22T06:09:02.820Z,99225.07
2019-01-22T06:12:10.544Z,99222.16
2019-01-22T06:15:18.851Z,99219.86
2019-01-22T06:18:13.333Z,99216.03
2019-01-22T06:20:58.750Z,99214.30
2019-01-22T06:23:39.579Z,99213.12
2019-01-22T06:29:09.878Z,99206.14
2019-01-22T06:31:51.100Z,99200.81
2019-01-22T06:34:32.923Z,99197.45
2019-01-22T06:37:14.677Z,99199.30
2019-01-22T06:43:37.449Z,99195.01
2019-01-22T06:46:40.118Z,99194.55
2019-01-22T06:49:21.810Z,99198.63
2019-01-22T06:52:03.479Z,99204.19
2019-01-22T06:55:12.689Z,99200.81
2019-01-22T06:58:20.590Z,99211.48
2019-01-22T07:01:28.958Z,99192.34
2019-01-22T07:04:10.191Z,99194.55
2019-01-22T07:06:52.059Z,99192.10
2019-01-22T07:09:33.577Z,99083.55
2019-01-22T07:12:41.480Z,99190.97
2019-01-22T07:15:49.774Z,99185.97
2019-01-22T07:18:31.192Z,99180.75
2019-01-22T07:21:12.968Z,99174.27
2019-01-22T07:24:21.518Z,99168.45
2019-01-22T07:27:47.987Z,99170.41
2019-01-22T07:30:57.743Z,99168.09
2019-01-22T07:33:40.491Z,99179.02
2019-01-22T07:36:48.747Z,99169.94
2019-01-22T07:42:34.938Z,99163.90
2019-01-22T07:45:43.332Z,99167.72
2019-01-22T07:48:56.066Z,99172.25
2019-01-22T07:51:38.730Z,99166.80
2019-01-22T07:54:20.479Z,99165.66
2019-01-22T07:57:02.048Z,99164.03
2019-01-22T07:59:43.642Z,99159.39
2019-01-22T08:02:51.738Z,99157.30
2019-01-22T08:06:18.139Z,99154.64
2019-01-22T08:09:25.959Z,99153.80
2019-01-22T08:12:07.883Z,99153.54
2019-01-22T08:15:15.697Z,99149.59
2019-01-22T08:21:22.940Z,99145.86
2019-01-22T08:24:04.585Z,99147.23
2019-01-22T08:26:45.696Z,99140.73
2019-01-22T08:29:27.281Z,99141.99
2019-01-22T08:32:36.651Z,99137.53
2019-01-22T08:35:44.317Z,99132.40
2019-01-22T08:38:25.788Z,99138.16
2019-01-22T08:41:07.345Z,99131.39
2019-01-22T08:47:34.012Z,99122.20
2019-01-22T08:50:41.771Z,99119.61
2019-01-22T08:53:49.711Z,99120.58
2019-01-22T08:59:56.445Z,99118.83
2019-01-22T09:02:38.004Z,99096.92
2019-01-22T09:05:19.182Z,99112.59
2019-01-22T09:08:39.455Z,99115.05
2019-01-22T09:11:35.771Z,99112.73
2019-01-22T09:14:17.330Z,99111.81
2019-01-22T09:16:58.338Z,99105.41
2019-01-22T09:20:01.058Z,99098.70
2019-01-22T09:22:41.883Z,99103.58
2019-01-22T09:25:43.860Z,99099.00
2019-01-22T09:28:34.664Z,99096.44
2019-01-22T09:31:27.966Z,99101.36
2019-01-22T09:34:38.849Z,99086.84
2019-01-22T09:37:20.398Z,99074.63
2019-01-22T09:39:51.055Z,99073.25
2019-01-22T09:42:23.612Z,99085.58
2019-01-22T09:44:54.279Z,99070.65
2019-01-22T09:47:24.368Z,99069.33
2019-01-22T09:49:57.075Z,99066.88
2019-01-22T09:55:37.271Z,99063.22
2019-01-22T09:58:18.875Z,99061.88
2019-01-22T10:01:08.186Z,99061.64
2019-01-22T10:03:49.471Z,99052.32
2019-01-22T10:06:31.422Z,99043.35
2019-01-22T10:09:14.935Z,99043.95
2019-01-22T10:12:23.954Z,99039.91
2019-01-22T10:21:13.408Z,99028.98
2019-01-22T10:27:12.192Z,99029.27
2019-01-22T10:30:12.953Z,99017.24
2019-01-22T10:32:54.880Z,99015.05
2019-01-22T10:35:39.001Z,99013.64
2019-01-22T10:38:19.903Z,99003.89
2019-01-22T10:44:13.238Z,98986.59
2019-01-22T10:46:43.573Z,98982.77
2019-01-22T10:49:13.973Z,98984.58
2019-01-22T10:55:20.357Z,98985.09
2019-01-22T11:00:56.802Z,98956.79
2019-01-22T11:03:27.341Z,98958.22
2019-01-22T11:05:57.748Z,98959.53
2019-01-22T11:08:27.946Z,98959.22
2019-01-22T11:11:16.976Z,98952.13
2019-01-22T11:14:01.248Z,98942.77
2019-01-22T11:16:51.019Z,98938.58
2019-01-22T11:19:54.156Z,98938.25
2019-01-22T11:22:25.382Z,98932.91
2019-01-22T11:24:57.446Z,98832.88
2019-01-22T11:27:28.220Z,98922.25
2019-01-22T11:34:04.020Z,98913.66
2019-01-22T11:36:46.963Z,98898.78
2019-01-22T11:42:52.320Z,98903.89
2019-01-22T11:45:23.167Z,98885.14
2019-01-22T11:47:53.737Z,98881.27
2019-01-22T11:50:24.041Z,98873.98
2019-01-22T11:52:54.797Z,98869.10
2019-01-22T11:55:25.493Z,98866.03
2019-01-22T11:58:00.263Z,98856.92
2019-01-22T12:00:38.571Z,98849.14
2019-01-22T12:03:10.201Z,98842.80
2019-01-22T12:05:41.223Z,98837.52
2019-01-22T12:08:11.709Z,98839.97
2019-01-22T12:10:42.127Z,98831.58
2019-01-22T12:13:13.867Z,98833.34
2019-01-22T12:15:44.577Z,98821.84
2019-01-22T12:18:15.174Z,98818.25
2019-01-22T12:20:47.669Z,98811.59
2019-01-22T12:23:18.409Z,98808.27
2019-01-22T12:25:50.000Z,98800.14
2019-01-22T12:28:20.552Z,98794.38
2019-01-22T12:30:51.135Z,98794.06
2019-01-22T12:33:21.449Z,98782.24
2019-01-22T12:35:52.024Z,98778.62
2019-01-22T12:38:22.991Z,98774.06
2019-01-22T12:41:32.241Z,98767.84
2019-01-22T12:44:40.132Z,98761.47
2019-01-22T12:47:22.094Z,98751.92
2019-01-22T12:50:03.891Z,98750.08
2019-01-22T12:52:44.987Z,98750.22
2019-01-22T12:55:54.570Z,98739.21
2019-01-22T13:01:39.675Z,98732.62
2019-01-22T13:07:03.769Z,98716.36
2019-01-22T13:09:44.931Z,98714.74
2019-01-22T13:12:26.903Z,98714.37
2019-01-22T13:15:12.727Z,98704.27
2019-01-22T13:17:53.582Z,98699.72
2019-01-22T13:20:35.797Z,98698.43
2019-01-22T13:23:20.146Z,98694.62
2019-01-22T13:26:21.042Z,98689.63
2019-01-22T13:28:51.840Z,98682.58
2019-01-22T13:35:00.735Z,98685.11
2019-01-22T13:37:41.592Z,98674.41
2019-01-22T13:40:23.413Z,98667.06
2019-01-22T13:45:54.709Z,98654.75
2019-01-22T13:49:05.785Z,98649.26
2019-01-22T13:51:55.090Z,98639.53
2019-01-22T13:55:04.897Z,98628.44
2019-01-22T13:57:36.650Z,98625.64
2019-01-22T14:00:09.058Z,98616.16
2019-01-22T14:02:41.285Z,98614.72
2019-01-22T14:05:13.090Z,98615.14
2019-01-22T14:08:22.782Z,98620.87
2019-01-22T14:10:54.017Z,98607.69
2019-01-22T14:13:27.726Z,98607.11
2019-01-22T14:16:16.875Z,98598.55
2019-01-22T14:18:58.794Z,98596.03
2019-01-22T14:21:41.002Z,98596.30
2019-01-22T14:24:22.078Z,98590.44
2019-01-22T14:27:12.070Z,98597.56
2019-01-22T14:33:24.689Z,98584.61
2019-01-22T14:36:24.699Z,98587.75
2019-01-22T14:42:08.470Z,98584.33
2019-01-22T14:44:51.504Z,98579.38
2019-01-22T14:47:33.923Z,98583.77
2019-01-22T14:53:15.990Z,98575.55
2019-01-22T14:56:32.334Z,98576.92
2019-01-22T14:59:38.383Z,98571.58
2019-01-22T15:02:50.133Z,98554.11
2019-01-22T15:11:27.292Z,98558.96
2019-01-22T15:20:30.853Z,98537.83
2019-01-22T15:23:01.997Z,98544.77
2019-01-22T15:25:33.321Z,98547.95
2019-01-22T15:34:56.993Z,98541.53
2019-01-22T15:37:38.933Z,98536.45
2019-01-22T15:40:20.915Z,98539.05
2019-01-22T15:43:10.488Z,98542.30
2019-01-22T15:45:59.758Z,98534.94
2019-01-22T15:48:41.753Z,98534.98
2019-01-22T15:51:23.694Z,98524.22
2019-01-22T15:54:07.438Z,98528.29
2019-01-22T15:56:49.102Z,98519.47
2019-01-22T15:59:19.874Z,98521.11
2019-01-22T16:01:52.252Z,98518.73
2019-01-22T16:04:27.705Z,98516.86
2019-01-22T16:07:00.810Z,98422.23
2019-01-22T16:09:32.811Z,98515.50
2019-01-22T16:12:04.451Z,98514.05
2019-01-22T16:14:40.810Z,98516.36
2019-01-22T16:17:11.941Z,98512.55
2019-01-22T16:19:42.522Z,98506.61
2019-01-22T16:22:13.164Z,98403.42
2019-01-22T16:24:44.399Z,98501.02
2019-01-22T16:27:14.840Z,98500.90
2019-01-22T16:29:45.890Z,98496.27
2019-01-22T16:32:17.857Z,98497.40
2019-01-22T16:34:49.662Z,98491.31
2019-01-22T16:37:20.333Z,98490.01
2019-01-22T16:39:53.877Z,98484.71
2019-01-22T16:42:24.685Z,98477.97
2019-01-22T16:44:55.803Z,98482.81
2019-01-22T16:47:27.256Z,98477.03
2019-01-22T16:50:04.710Z,98389.37
2019-01-22T16:52:35.834Z,98497.47
2019-01-22T16:55:13.593Z,98398.34
2019-01-22T16:57:44.424Z,98485.73
2019-01-22T17:00:18.680Z,98485.25
2019-01-22T17:02:49.215Z,98490.41
2019-01-22T17:05:23.672Z,98487.99
2019-01-22T17:07:56.920Z,98481.56
2019-01-22T17:10:28.749Z,98481.22
2019-01-22T17:12:59.321Z,98476.72
2019-01-22T17:15:31.005Z,98474.48
2019-01-22T17:18:09.153Z,98475.77
2019-01-22T17:20:47.692Z,98480.41
2019-01-22T17:23:16.847Z,98474.14
2019-01-22T17:25:48.182Z,98476.05
2019-01-22T17:28:18.849Z,98470.28
2019-01-22T17:30:49.972Z,98467.25
2019-01-22T17:33:37.127Z,98463.87
2019-01-22T17:36:09.192Z,98466.92
2019-01-22T17:38:43.562Z,98468.66
2019-01-22T17:44:26.640Z,98464.78
2019-01-22T17:47:17.411Z,98457.86
2019-01-22T17:49:51.120Z,98455.47
2019-01-22T17:52:21.912Z,98453.37
2019-01-22T17:54:52.559Z,98455.44
2019-01-22T17:57:23.199Z,98405.28
2019-01-22T17:59:57.232Z,98448.32
2019-01-22T18:02:34.640Z,98445.09
2019-01-22T18:05:01.102Z,98450.37
2019-01-22T18:07:34.114Z,98453.73
2019-01-22T18:10:44.255Z,98449.22
2019-01-22T18:13:35.728Z,98450.98
2019-01-22T18:16:07.182Z,98446.18
2019-01-22T18:25:18.179Z,98435.73
2019-01-22T18:31:29.968Z,98428.03
2019-01-22T18:34:31.331Z,98426.41
2019-01-22T18:37:02.063Z,98423.48
2019-01-22T18:39:33.046Z,98418.34
2019-01-22T18:42:03.932Z,98419.95
2019-01-22T18:44:35.686Z,98415.15
2019-01-22T18:47:07.222Z,98411.59
2019-01-22T18:49:38.263Z,98415.10
2019-01-22T18:52:09.041Z,98414.44
2019-01-22T18:54:39.222Z,98406.12
2019-01-22T18:57:11.213Z,98407.36
2019-01-22T18:59:43.057Z,98405.27
2019-01-22T19:02:14.301Z,98398.19
2019-01-22T19:04:44.662Z,98402.83
2019-01-22T19:07:18.277Z,98397.38
2019-01-22T19:09:49.052Z,98402.16
2019-01-22T19:12:19.485Z,98400.22
2019-01-22T19:14:49.704Z,98389.34
2019-01-22T19:17:20.886Z,98398.66
2019-01-22T19:19:51.391Z,98396.28
2019-01-22T19:22:21.755Z,98396.61
2019-01-22T19:24:53.009Z,98390.20
2019-01-22T19:27:24.809Z,98388.11
2019-01-22T19:29:55.489Z,98385.22
2019-01-22T19:32:25.957Z,98389.39
2019-01-22T19:34:56.231Z,98285.58
2019-01-22T19:37:27.047Z,98381.97
2019-01-22T19:39:57.540Z,98379.71
2019-01-22T19:42:28.324Z,98382.59
2019-01-22T19:44:58.966Z,98385.45
2019-01-22T19:51:32.003Z,98369.92
2019-01-22T19:54:13.083Z,98369.44
2019-01-22T20:00:18.740Z,98364.27
2019-01-22T20:03:19.487Z,98305.94
2019-01-22T20:06:21.355Z,98362.98
2019-01-22T20:09:05.023Z,98363.11
2019-01-22T20:11:48.565Z,98367.08
2019-01-22T20:17:47.329Z,98215.84
2019-01-22T20:26:41.345Z,98331.56
2019-01-22T20:29:23.263Z,98334.77
2019-01-22T20:32:05.153Z,98336.52
2019-01-22T20:34:46.118Z,98335.72
2019-01-22T20:37:39.611Z,98323.86
2019-01-22T20:40:20.736Z,98327.04
2019-01-22T20:43:01.824Z,98327.16
2019-01-22T20:45:43.613Z,98325.87
2019-01-22T20:48:25.324Z,98320.89
2019-01-22T20:51:06.334Z,98324.25
2019-01-22T20:53:55.615Z,98319.94
2019-01-22T20:56:36.926Z,98318.50
2019-01-22T20:59:38.331Z,97975.88
2019-01-22T21:02:19.692Z,98321.67
2019-01-22T21:05:20.523Z,98322.63
2019-01-22T21:08:01.528Z,98320.20
2019-01-22T21:11:03.464Z,98308.53
2019-01-22T21:16:37.012Z,98307.04
2019-01-22T21:19:07.930Z,98311.33
2019-01-22T21:21:38.419Z,98308.72
2019-01-22T21:24:09.017Z,98315.13
2019-01-22T21:26:40.052Z,98309.53
2019-01-22T21:29:11.934Z,98303.78
2019-01-22T21:31:42.484Z,98305.20
2019-01-22T21:34:12.812Z,98301.16
2019-01-22T21:36:43.058Z,98300.83
2019-01-22T21:39:17.208Z,98303.23
2019-01-22T21:42:26.389Z,98295.69
2019-01-22T21:44:57.145Z,98295.69
2019-01-22T21:51:18.977Z,98275.48
2019-01-22T21:54:00.445Z,98275.48
2019-01-22T21:56:42.003Z,98275.95
2019-01-22T21:59:26.498Z,98276.13
2019-01-22T22:01:56.789Z,98270.81
2019-01-22T22:11:01.729Z,98268.99
2019-01-22T22:13:42.971Z,98274.75
2019-01-22T22:16:25.908Z,98223.66
2019-01-22T22:19:06.958Z,98261.89
2019-01-22T22:21:47.904Z,98262.83
2019-01-22T22:27:31.769Z,98258.50
2019-01-22T22:30:13.487Z,98269.01
2019-01-22T22:32:54.564Z,98256.20
2019-01-22T22:35:43.732Z,98263.06
2019-01-22T22:38:32.917Z,98256.98
2019-01-22T22:41:21.984Z,98256.31
2019-01-22T22:44:12.036Z,98256.31
2019-01-22T22:47:22.064Z,98254.53
2019-01-22T22:50:23.487Z,98250.51
2019-01-22T22:53:24.014Z,98248.75
2019-01-22T22:56:05.863Z,98257.67
2019-01-22T23:02:16.591Z,98234.86
2019-01-22T23:11:19.216Z,98234.14
2019-01-22T23:14:00.597Z,98238.97
2019-01-22T23:19:47.507Z,98237.02
2019-01-22T23:22:56.554Z,98235.66
2019-01-22T23:28:55.361Z,98233.08
2019-01-22T23:34:44.657Z,98232.68
2019-01-22T23:37:26.312Z,98224.14
2019-01-22T23:40:15.508Z,98225.39
2019-01-22T23:43:23.672Z,98227.91
2019-01-22T23:46:06.628Z,98221.33
2019-01-22T23:49:07.417Z,98223.75
2019-01-22T23:52:08.864Z,98214.10
2019-01-22T23:54:50.488Z,98208.29
2019-01-22T23:57:32.359Z,98211.38
